NQY weather

Newquay Cornwall Airport
Newquay, England, United Kingdom

Public forecast

Using degrees Celsius for public forecast. Weather courtesy of forecast.io.

METAR (pilot weather report)

Report is more than 6 hours old.

Retrieved 2019/03/23 17:20 UTC (11 hours ago):

EGHQ 231720Z 01005KT 8000 FEW003 BKN025 OVC032 09/09 Q1031 REDZ

TAF (pilot weather forecast)

Forecast is more than 12 hours old.

Closest forecast is RNAS Culdrose, 23.5 nm (43.5 km) SSW. Retrieved 2016/10/07 12:45 UTC (2 years ago):

TAF TAF EGDR 071134Z 0712/0724 11015KT 9999 SCT025 PROB30 TEMPO 0712/0715 7000 -SHRA FEW012 BKN020 BECMG 0721/0723 9999 BKN022